createdAt,value
2024-04-04T00:00:13.538Z,951.94
2024-04-04T00:05:15.116Z,951.82
2024-04-04T00:10:16.589Z,951.82
2024-04-04T00:15:18.349Z,951.84
2024-04-04T00:20:20.377Z,951.81
2024-04-04T00:25:22.571Z,951.78
2024-04-04T00:30:24.015Z,951.8
2024-04-04T00:35:25.664Z,951.81
2024-04-04T00:40:27.119Z,951.77
2024-04-04T00:45:28.713Z,951.78
2024-04-04T00:50:30.183Z,951.71
2024-04-04T00:55:31.796Z,951.8
2024-04-04T01:00:41.096Z,951.77
2024-04-04T01:05:34.428Z,951.74
2024-04-04T01:10:35.664Z,951.76
2024-04-04T01:15:37.796Z,951.8
2024-04-04T01:20:39.946Z,951.84
2024-04-04T01:25:41.706Z,951.87
2024-04-04T01:30:43.029Z,951.88
2024-04-04T01:35:44.232Z,951.87
2024-04-04T01:40:45.488Z,951.97
2024-04-04T01:45:46.896Z,951.98
2024-04-04T01:50:48.265Z,951.96
2024-04-04T01:55:49.432Z,951.97
2024-04-04T02:00:51.221Z,952.06
2024-04-04T02:05:52.973Z,952.04
2024-04-04T02:10:54.804Z,952
2024-04-04T02:15:56.871Z,952.01
2024-04-04T02:20:58.882Z,952
2024-04-04T02:26:00.896Z,952.06
2024-04-04T02:31:02.639Z,952.12
2024-04-04T02:36:14.195Z,952.14
2024-04-04T02:41:05.399Z,952.2
2024-04-04T02:46:15.482Z,952.24
2024-04-04T02:51:09.213Z,952.26
2024-04-04T02:56:10.791Z,952.24
2024-04-04T03:01:12.777Z,952.33
2024-04-04T03:06:14.140Z,952.3
2024-04-04T03:11:15.600Z,952.26
2024-04-04T03:16:16.950Z,952.3
2024-04-04T03:21:19.135Z,952.25
2024-04-04T03:26:21.230Z,952.36
2024-04-04T03:31:22.578Z,952.29
2024-04-04T03:36:24.206Z,952.23
2024-04-04T03:41:26.301Z,952.28
2024-04-04T03:46:27.738Z,952.43
2024-04-04T03:51:29.183Z,952.43
2024-04-04T03:56:30.998Z,952.46
2024-04-04T04:01:32.743Z,952.52
2024-04-04T04:06:34.024Z,952.55
2024-04-04T04:11:35.863Z,952.58
2024-04-04T04:16:37.869Z,952.61
2024-04-04T04:21:39.708Z,952.72
2024-04-04T04:26:41.576Z,952.69
2024-04-04T04:31:43.014Z,952.71
2024-04-04T04:36:44.639Z,952.76
2024-04-04T04:41:46.482Z,952.75
2024-04-04T04:46:48.211Z,952.79
2024-04-04T04:51:50.061Z,952.78
2024-04-04T04:56:51.870Z,952.86
2024-04-04T05:01:53.346Z,952.83
2024-04-04T05:06:55.196Z,952.85
2024-04-04T05:11:56.729Z,952.89
2024-04-04T05:16:58.065Z,952.89
2024-04-04T05:22:00.083Z,952.93
2024-04-04T05:27:01.312Z,952.97
2024-04-04T05:32:03.071Z,952.95
2024-04-04T05:37:04.660Z,952.98
2024-04-04T05:42:06.796Z,952.99
2024-04-04T05:47:08.116Z,952.97
2024-04-04T05:52:09.685Z,952.98
2024-04-04T05:57:10.955Z,952.99
2024-04-04T06:02:12.539Z,952.95
2024-04-04T06:07:14.068Z,952.93
2024-04-04T06:12:15.398Z,952.96
2024-04-04T06:17:16.825Z,952.97
2024-04-04T06:22:18.149Z,952.96
2024-04-04T06:27:19.396Z,952.88
2024-04-04T06:32:21.232Z,952.88
2024-04-04T06:37:22.470Z,952.84
2024-04-04T06:42:24.611Z,952.94
2024-04-04T06:47:26.112Z,952.88
2024-04-04T06:52:28.209Z,952.93
2024-04-04T06:57:30.357Z,952.91
2024-04-04T07:02:32.309Z,952.95
2024-04-04T07:07:34.153Z,953
2024-04-04T07:12:35.488Z,953.07
2024-04-04T07:17:36.733Z,953.02
2024-04-04T07:22:38.292Z,953.08
2024-04-04T07:27:40.157Z,953.03
2024-04-04T07:32:42.319Z,952.89
2024-04-04T07:37:44.497Z,952.95
2024-04-04T07:42:45.820Z,952.97
2024-04-04T07:47:47.647Z,952.95
2024-04-04T07:52:49.557Z,952.94
2024-04-04T07:57:50.749Z,953.05
2024-04-04T08:02:52.882Z,953.04
2024-04-04T08:07:54.243Z,953.08
2024-04-04T08:12:56.158Z,953.17
2024-04-04T08:17:57.905Z,953.11
2024-04-04T08:22:59.739Z,953.09
2024-04-04T08:28:01.306Z,953.05
2024-04-04T08:33:02.574Z,953.01
2024-04-04T08:38:04.321Z,952.96
2024-04-04T08:43:05.623Z,952.98
2024-04-04T08:48:06.821Z,953.06
2024-04-04T08:53:08.919Z,952.98
2024-04-04T08:58:10.949Z,952.97
2024-04-04T09:03:12.196Z,953.06
2024-04-04T09:08:14.113Z,953.03
2024-04-04T09:13:15.419Z,953
2024-04-04T09:23:18.979Z,953.01
2024-04-04T09:28:20.910Z,952.97
2024-04-04T09:33:22.340Z,952.95
2024-04-04T09:38:23.847Z,952.97
2024-04-04T09:43:25.155Z,952.83
2024-04-04T09:48:35.811Z,952.85
2024-04-04T09:53:28.660Z,952.95
2024-04-04T09:58:30.613Z,952.89
2024-04-04T10:03:31.957Z,952.91
2024-04-04T10:08:33.271Z,952.78
2024-04-04T10:13:34.610Z,952.93
2024-04-04T10:18:36.726Z,952.84
2024-04-04T10:23:38.644Z,952.61
2024-04-04T10:28:40.369Z,952.56
2024-04-04T10:33:41.681Z,952.5
2024-04-04T10:38:43.390Z,952.45
2024-04-04T10:43:45.328Z,952.48
2024-04-04T10:48:47.436Z,952.51
2024-04-04T10:53:48.986Z,952.3
2024-04-04T10:58:52.011Z,952.21
2024-04-04T11:03:52.145Z,952.28
2024-04-04T11:08:53.978Z,952.17
2024-04-04T11:13:56.035Z,952.2
2024-04-04T11:18:58.170Z,952.31
2024-04-04T11:23:59.380Z,952.27
2024-04-04T11:29:01.059Z,952.32
2024-04-04T11:34:02.294Z,952.27
2024-04-04T11:39:03.619Z,952.33
2024-04-04T11:44:05.209Z,952.27
2024-04-04T11:49:07.089Z,952.33
2024-04-04T11:54:15.120Z,952.29
2024-04-04T11:59:17.174Z,952.29
2024-04-04T12:04:19.426Z,952.35
2024-04-04T12:09:21.101Z,952.39
2024-04-04T12:14:23.184Z,952.37
2024-04-04T12:19:24.649Z,952.4
2024-04-04T12:24:26.755Z,952.32
2024-04-04T12:29:28.900Z,952.34
2024-04-04T12:34:30.501Z,952.31
2024-04-04T12:39:31.855Z,952.43
2024-04-04T12:44:33.492Z,952.42
2024-04-04T12:49:35.553Z,952.47
2024-04-04T12:54:37.692Z,952.39
2024-04-04T12:59:39.316Z,952.38
2024-04-04T13:04:40.603Z,952.37
2024-04-04T13:09:42.525Z,952.48
2024-04-04T13:14:44.553Z,952.55
2024-04-04T13:19:46.135Z,952.6
2024-04-04T13:24:47.415Z,952.56
2024-04-04T13:29:49.242Z,952.46
2024-04-04T13:34:50.567Z,952.47
2024-04-04T13:39:51.799Z,952.41
2024-04-04T13:44:53.782Z,952.46
2024-04-04T13:49:55.798Z,952.37
2024-04-04T13:54:57.568Z,952.4
2024-04-04T13:59:58.953Z,952.49
2024-04-04T14:05:00.468Z,952.44
2024-04-04T14:10:01.937Z,952.34
2024-04-04T14:15:03.896Z,952.4
2024-04-04T14:20:05.970Z,952.3
2024-04-04T14:25:08.861Z,952.31
2024-04-04T14:30:09.157Z,952.37
2024-04-04T14:35:10.995Z,952.34
2024-04-04T14:40:12.342Z,952.34
2024-04-04T14:45:14.422Z,952.37
2024-04-04T14:50:15.610Z,952.28
2024-04-04T14:55:17.351Z,952.24
2024-04-04T15:00:19.084Z,952.21
2024-04-04T15:05:20.539Z,952.29
2024-04-04T15:10:22.045Z,952.33
2024-04-04T15:15:23.908Z,952.24
2024-04-04T15:20:25.166Z,952.37
2024-04-04T15:25:28.998Z,952.46
2024-04-04T15:30:29.155Z,952.6
2024-04-04T15:35:30.810Z,952.52
2024-04-04T15:40:32.433Z,952.52
2024-04-04T15:45:34.477Z,952.52
2024-04-04T15:50:36.495Z,952.53
2024-04-04T15:55:38.669Z,952.64
2024-04-04T16:00:40.470Z,952.75
2024-04-04T16:05:41.875Z,952.87
2024-04-04T16:10:43.783Z,953.08
2024-04-04T16:15:46.002Z,953.08
2024-04-04T16:20:47.563Z,953.4
2024-04-04T16:25:49.039Z,953.6
2024-04-04T16:30:50.536Z,953.6
2024-04-04T16:35:52.384Z,953.7
2024-04-04T16:40:54.529Z,953.7
2024-04-04T16:45:56.451Z,953.66
2024-04-04T16:50:58.193Z,953.53
2024-04-04T16:56:00.159Z,953.46
2024-04-04T17:01:01.688Z,953.25
2024-04-04T17:06:02.933Z,953.14
2024-04-04T17:11:04.888Z,953.08
2024-04-04T17:16:06.730Z,953.08
2024-04-04T17:21:08.650Z,953.14
2024-04-04T17:26:09.952Z,953.31
2024-04-04T17:31:12.115Z,953.31
2024-04-04T17:36:14.273Z,953.39
2024-04-04T17:41:15.803Z,953.22
2024-04-04T17:46:17.093Z,953.22
2024-04-04T17:51:18.958Z,953.23
2024-04-04T17:56:20.724Z,953.25
2024-04-04T18:01:22.265Z,953.27
2024-04-04T18:06:24.136Z,953.52
2024-04-04T18:11:25.388Z,953.62
2024-04-04T18:16:26.906Z,953.65
2024-04-04T18:21:28.248Z,953.7
2024-04-04T18:26:30.252Z,953.67
2024-04-04T18:31:32.425Z,953.68
2024-04-04T18:36:34.085Z,953.77
2024-04-04T18:41:35.545Z,953.82
2024-04-04T18:46:37.143Z,953.88
2024-04-04T18:51:38.871Z,953.99
2024-04-04T18:56:40.256Z,954.06
2024-04-04T19:01:42.266Z,954.07
2024-04-04T19:06:52.756Z,954.11
2024-04-04T19:11:45.431Z,954.17
2024-04-04T19:16:47.175Z,954.2
2024-04-04T19:21:48.452Z,954.25
2024-04-04T19:26:49.730Z,954.29
2024-04-04T19:31:51.302Z,954.31
2024-04-04T19:36:53.105Z,954.4
2024-04-04T19:41:54.069Z,954.46
2024-04-04T19:46:55.680Z,954.54
2024-04-04T19:51:57.207Z,954.59
2024-04-04T19:56:58.460Z,954.66
2024-04-04T20:01:59.779Z,954.72
2024-04-04T20:07:01.260Z,954.73
2024-04-04T20:12:02.769Z,954.86
2024-04-04T20:17:04.593Z,954.96
2024-04-04T20:22:06.223Z,955
2024-04-04T20:27:08.334Z,955.14
2024-04-04T20:32:09.870Z,955.08
2024-04-04T20:37:11.371Z,954.91
2024-04-04T20:42:13.383Z,954.91
2024-04-04T20:47:15.538Z,954.93
2024-04-04T20:52:16.801Z,955.21
2024-04-04T20:57:18.433Z,955.29
2024-04-04T21:02:19.706Z,955.34
2024-04-04T21:07:21.143Z,955.33
2024-04-04T21:12:22.864Z,955.4
2024-04-04T21:17:24.040Z,955.57
2024-04-04T21:22:26.076Z,955.54
2024-04-04T21:27:27.546Z,955.61
2024-04-04T21:32:28.909Z,955.86
2024-04-04T21:37:30.299Z,955.85
2024-04-04T21:42:31.717Z,955.75
2024-04-04T21:47:33.815Z,955.84
2024-04-04T21:52:35.267Z,955.91
2024-04-04T21:57:37.017Z,955.97
2024-04-04T22:02:39.129Z,956.05
2024-04-04T22:07:41.075Z,956.18
2024-04-04T22:12:42.296Z,956.13
2024-04-04T22:17:43.728Z,956.2
2024-04-04T22:22:45.662Z,956.24
2024-04-04T22:27:46.901Z,956.1
2024-04-04T22:32:49.071Z,955.85
2024-04-04T22:37:50.862Z,955.85
2024-04-04T22:42:52.612Z,955.98
2024-04-04T22:47:53.894Z,956.01
2024-04-04T22:52:56.062Z,956.21
2024-04-04T22:57:57.810Z,956.14
2024-04-04T23:02:59.892Z,956.15
2024-04-04T23:08:01.741Z,956.12
2024-04-04T23:13:03.143Z,956.21
2024-04-04T23:18:04.449Z,956.2
2024-04-04T23:23:06.094Z,956.22
2024-04-04T23:28:08.035Z,956.11
2024-04-04T23:33:09.696Z,956.08
2024-04-04T23:38:11.790Z,956.04
2024-04-04T23:43:13.494Z,956.06
2024-04-04T23:48:15.264Z,956.05
2024-04-04T23:53:16.927Z,956.04
2024-04-04T23:58:18.155Z,955.95
